الصفحة الرئيسية
METAR-TAF:

METAR-TAF

مطار :

Maré, نيو كاليدونيا

دائرة عرض: 21-28-53S, خط طول: 168-02-15E, ارتفاع: 42 متر

METAR: مفقودة

زمن: 12:07 (01:07 UTC)

توقعات

تاريخ ووقت الإصدار 8ساعات و 7 دقيقة قبل الساعة 17:00UTC
التوقعات صالحة من19 الساعة 18 UTC إلى 20 الساعة 18 UTC
ريح 2 عقدةمن اتجاهات متغيرة
الرؤية 10 كم أو أكثر
غيوم متفرقة على ارتفاع 1500 قدم
غيوم مفككة على ارتفاع 3000 قدم
مؤقت
من 19 الساعة 18 UTC إلى 19 الساعة 20 UTC
الرؤية: 4000 متر
غيوم مفككة على ارتفاع 1200 قدم
غيوم متفرقة على ارتفاع 1800 قدم, مزن ركامية عمودية.
ملبد بالغيوم على ارتفاع 2500 قدم
زخات من المطر
نظرية الاحتمالات 30% :
مؤقت
من 19 الساعة 18 UTC إلى 19 الساعة 21 UTC
الرؤية: 0600 متر
ضباب
أصبح
من 19 الساعة 22 UTC إلى 19 الساعة 24 UTC
ريح 12 عقدة من الجنوب الغربي
أصبح
من 20 الساعة 10 UTC إلى 20 الساعة 12 UTC
ريح 2 عقدةمن اتجاهات متغيرة

TAF: NWWR 191700Z 1918/2018 VRB02KT 9999 SCT015 BKN030 TEMPO 1918/1920 4000 SHRA BKN012 SCT018TCU OVC025 PROB30 TEMPO 1918/1921 0600 FG VV/// BECMG 1922/1924 23012KT BECMG 2010/2012 VRB02KT

أرصاد الطقس والتوقعات من أكثر من 4000 مطار (تقارير الطقس للمطار METAR والتنبؤ بالطقس بالمطارTAF).

المحطات المتاحة هي النقط الصفراء والحمراء على الخريطة.

حرك المؤشر فوق النقطة لمعرفة اسم المحطة.

ثم انقر لمعرفة أرصاد وتوقعات الطقس.

لتغيير الخارطة: اضغط على الأزرار الخضراء مع رمز الصليب الأسود للتكبير. على الزر الأخضر مع شرطة للتصغير، أو على الأسهم الخضراء للخرائط المجاورة.


METAR-TAF: